San Francisco, Mexico

11:16 PM MST on February 06, 2016 (GMT -0700)
San Pancho | | Change Station
CLOSE
Current Station
Personal Weather Station
Location: San Francisco, NAYARIT
Elevation: 0 ft
Nearby Weather Stations

Elev 0 ft 20.90 °N, 105.41 °W | Updated 3 days ago

Mostly Cloudy
Mostly Cloudy
68 °F
Feels Like 68 °F
N
4
Wind Variable Wind from East
Gusts mph

Today
High -- | Low -- °F
--% Chance of Precip.
Yesterday
High -- | Low -- °F
Precip. -- in
Pressure 29.95 in
Visibility 12.0 miles
Clouds Mostly Cloudy 27000 ft
Dew Point 62 °F
Humidity 79%
Rainfall in
Snow Depth Not available.
6:36 AM 5:55 PM
Waning Crescent, 2% visible
METAR MMPR 070546Z 01003KT 12SM BKN270 21/18 A2995 RMK SLP141 51006 960 8/008
Pressure 29.95 in
Visibility 12.0 miles
Clouds Mostly Cloudy 27000 ft
Dew Point 62 °F
Humidity 79%
Rainfall in
Snow Depth Not available.
6:36 AM 5:55 PM
Waning Crescent, 2% visible
METAR MMPR 070546Z 01003KT 12SM BKN270 21/18 A2995 RMK SLP141 51006 960 8/008

10-Day Weather Forecast

No radar image for this location.
×

Almanac

Astronomy

Feb. 06, 2016 Rise Set
Actual Time
Civil Twilight
Nautical Twilight
Astronomical Twilight
Moon
Length of Visible Light
Length of Day
Tomorrow will be .
, % of the Moon is Illuminated

Today's Extremes

Country Highs Country Lows

Community

WunderPhotos

Upload Photos

1,891,173 photos uploaded!

WunderBlog® & News

Nearby

Air Quality

  Air Quality AQ Index Pollutant
Not available.

Snow Depth

Station Depth Elevation

Earthquake Activity

City Distance Mag. Time & Date
Minimum magnitude displayed is 2.5.

Coastal Water Temperatures

Place Temperature

Stations

Nearby Weather Stations

Station Location Temp. Windchill Dew Point Humidity Wind Precip. Elev Updated Type